createdAt,value
2023-01-05T00:01:11.529Z,0.03
2023-01-05T00:03:38.910Z,0.10
2023-01-05T00:06:12.737Z,0.00
2023-01-05T00:08:39.845Z,0.00
2023-01-05T00:11:07.542Z,0.17
2023-01-05T00:13:34.181Z,0.00
2023-01-05T00:16:03.293Z,0.10
2023-01-05T00:18:29.913Z,0.00
2023-01-05T00:20:56.611Z,0.00
2023-01-05T00:23:23.155Z,0.00
2023-01-05T00:25:49.751Z,0.08
2023-01-05T00:28:16.270Z,0.10
2023-01-05T00:30:45.730Z,0.00
2023-01-05T00:33:15.194Z,0.00
2023-01-05T00:35:41.949Z,0.08
2023-01-05T00:38:09.594Z,0.08
2023-01-05T00:40:38.771Z,0.00
2023-01-05T00:43:05.466Z,0.10
2023-01-05T00:45:32.201Z,0.10
2023-01-05T00:47:58.840Z,0.00
2023-01-05T00:50:25.483Z,0.00
2023-01-05T00:52:52.036Z,0.00
2023-01-05T00:55:18.777Z,0.00
2023-01-05T00:57:45.382Z,0.10
2023-01-05T01:00:16.279Z,0.00
2023-01-05T01:02:43.256Z,0.10
2023-01-05T01:05:10.431Z,0.00
2023-01-05T01:07:36.976Z,0.00
2023-01-05T01:10:05.204Z,0.00
2023-01-05T01:12:31.713Z,0.10
2023-01-05T01:14:58.180Z,0.10
2023-01-05T01:17:24.911Z,0.00
2023-01-05T01:19:51.465Z,0.00
2023-01-05T01:22:18.986Z,0.05
2023-01-05T01:24:45.542Z,0.00
2023-01-05T01:27:12.429Z,0.00
2023-01-05T01:29:39.889Z,0.00
2023-01-05T01:32:06.391Z,0.00
2023-01-05T01:34:33.109Z,0.10
2023-01-05T01:36:59.776Z,0.00
2023-01-05T01:39:30.872Z,0.00
2023-01-05T01:42:03.110Z,0.10
2023-01-05T01:45:05.985Z,0.08
2023-01-05T01:47:56.470Z,0.00
2023-01-05T01:50:31.841Z,0.00
2023-01-05T01:53:04.479Z,0.00
2023-01-05T01:55:32.918Z,0.05
2023-01-05T01:58:01.223Z,0.00
2023-01-05T02:02:56.419Z,0.10
2023-01-05T02:05:28.370Z,0.00
2023-01-05T02:07:54.943Z,0.10
2023-01-05T02:10:42.435Z,0.00
2023-01-05T02:13:31.943Z,0.10
2023-01-05T02:16:33.628Z,0.10
2023-01-05T02:19:03.089Z,0.10
2023-01-05T02:21:54.539Z,0.00
2023-01-05T02:24:41.453Z,0.00
2023-01-05T02:27:26.934Z,0.00
2023-01-05T02:29:59.995Z,0.32
2023-01-05T02:32:37.056Z,0.03
2023-01-05T02:35:20.250Z,0.10
2023-01-05T02:38:23.975Z,0.05
2023-01-05T02:40:57.612Z,0.00
2023-01-05T02:43:24.441Z,0.10
2023-01-05T02:45:51.084Z,0.08
2023-01-05T02:48:17.698Z,0.15
2023-01-05T02:50:54.239Z,0.17
2023-01-05T02:53:31.209Z,0.00
2023-01-05T02:56:03.728Z,0.03
2023-01-05T02:58:39.646Z,0.20
2023-01-05T03:01:09.682Z,0.00
2023-01-05T03:03:49.626Z,0.10
2023-01-05T03:06:43.017Z,0.00
2023-01-05T03:09:09.635Z,0.00
2023-01-05T03:12:19.719Z,0.00
2023-01-05T03:14:51.130Z,0.25
2023-01-05T03:17:25.768Z,0.10
2023-01-05T03:19:55.445Z,0.10
2023-01-05T03:22:25.761Z,0.00
2023-01-05T03:24:52.575Z,0.10
2023-01-05T03:27:19.477Z,0.10
2023-01-05T03:29:46.228Z,0.10
2023-01-05T03:32:22.997Z,0.00
2023-01-05T03:34:56.390Z,0.10
2023-01-05T03:37:43.287Z,0.10
2023-01-05T03:40:16.832Z,0.00
2023-01-05T03:42:44.011Z,0.10
2023-01-05T03:45:12.013Z,0.05
2023-01-05T03:47:38.492Z,0.00
2023-01-05T03:50:05.605Z,0.10
2023-01-05T03:52:32.149Z,0.10
2023-01-05T03:57:27.590Z,0.00
2023-01-05T03:59:54.461Z,0.00
2023-01-05T04:02:21.276Z,0.10
2023-01-05T04:04:48.028Z,0.10
2023-01-05T04:07:14.892Z,0.03
2023-01-05T04:09:41.409Z,0.57
2023-01-05T04:12:09.063Z,0.08
2023-01-05T04:14:39.917Z,0.10
2023-01-05T04:17:06.696Z,0.15
2023-01-05T04:19:33.202Z,0.03
2023-01-05T04:22:00.987Z,0.10
2023-01-05T04:24:30.085Z,0.20
2023-01-05T04:26:57.533Z,0.00
2023-01-05T04:29:26.222Z,0.00
2023-01-05T04:31:54.094Z,0.10
2023-01-05T04:34:20.700Z,0.10
2023-01-05T04:36:48.955Z,0.00
2023-01-05T04:39:18.806Z,0.10
2023-01-05T04:41:45.471Z,0.00
2023-01-05T04:44:12.776Z,0.10
2023-01-05T04:46:40.956Z,0.10
2023-01-05T04:49:10.470Z,0.00
2023-01-05T04:51:38.658Z,0.10
2023-01-05T04:54:06.946Z,0.00
2023-01-05T04:56:34.277Z,0.00
2023-01-05T04:59:03.388Z,0.00
2023-01-05T05:01:30.062Z,0.00
2023-01-05T05:03:58.890Z,0.00
2023-01-05T05:06:25.980Z,0.08
2023-01-05T05:08:55.064Z,0.13
2023-01-05T05:11:24.217Z,0.10
2023-01-05T05:13:51.264Z,0.10
2023-01-05T05:16:17.903Z,0.10
2023-01-05T05:18:46.340Z,0.00
2023-01-05T05:21:17.905Z,0.15
2023-01-05T05:23:44.379Z,0.10
2023-01-05T05:26:11.044Z,0.10
2023-01-05T05:28:37.978Z,0.10
2023-01-05T05:31:04.725Z,0.08
2023-01-05T05:33:31.372Z,0.00
2023-01-05T05:35:57.831Z,0.10
2023-01-05T05:38:24.483Z,0.10
2023-01-05T05:40:51.194Z,0.10
2023-01-05T05:43:17.704Z,0.17
2023-01-05T05:45:50.007Z,0.10
2023-01-05T05:48:17.671Z,0.10
2023-01-05T05:50:44.889Z,0.05
2023-01-05T05:53:11.465Z,0.10
2023-01-05T05:55:37.949Z,0.10
2023-01-05T05:58:04.617Z,0.10
2023-01-05T06:00:31.334Z,0.10
2023-01-05T06:02:58.044Z,0.10
2023-01-05T06:05:24.679Z,0.20
2023-01-05T06:07:51.296Z,0.10
2023-01-05T06:10:17.775Z,0.10
2023-01-05T06:12:44.443Z,0.10
2023-01-05T06:15:11.323Z,0.00
2023-01-05T06:17:37.867Z,0.10
2023-01-05T06:20:05.679Z,0.00
2023-01-05T06:22:34.730Z,0.20
2023-01-05T06:25:01.271Z,0.10
2023-01-05T06:27:27.803Z,0.20
2023-01-05T06:29:54.272Z,0.25
2023-01-05T06:32:20.777Z,0.10
2023-01-05T06:34:47.293Z,0.10
2023-01-05T06:37:13.953Z,0.47
2023-01-05T06:39:40.397Z,0.10
2023-01-05T06:42:06.897Z,0.28
2023-01-05T06:44:33.503Z,0.17
2023-01-05T06:46:59.936Z,0.00
2023-01-05T06:49:26.536Z,0.10
2023-01-05T06:51:53.075Z,0.35
2023-01-05T06:54:19.660Z,0.10
2023-01-05T06:56:46.348Z,0.10
2023-01-05T06:59:12.945Z,0.10
2023-01-05T07:01:39.692Z,0.20
2023-01-05T07:04:06.285Z,0.20
2023-01-05T07:06:34.714Z,0.08
2023-01-05T07:09:01.449Z,0.10
2023-01-05T07:11:28.027Z,0.20
2023-01-05T07:13:54.712Z,0.03
2023-01-05T07:16:21.380Z,0.05
2023-01-05T07:18:47.951Z,0.00
2023-01-05T07:21:14.642Z,0.20
2023-01-05T07:23:41.106Z,0.10
2023-01-05T07:26:08.961Z,0.10
2023-01-05T07:28:36.716Z,0.05
2023-01-05T07:31:04.011Z,0.20
2023-01-05T07:33:36.083Z,0.00
2023-01-05T07:36:06.082Z,0.00
2023-01-05T07:38:32.803Z,0.30
2023-01-05T07:41:00.331Z,0.17
2023-01-05T07:43:27.333Z,0.10
2023-01-05T07:46:01.420Z,0.10
2023-01-05T07:48:28.018Z,0.10
2023-01-05T07:51:00.337Z,0.00
2023-01-05T07:53:27.395Z,0.17
2023-01-05T07:55:58.530Z,0.10
2023-01-05T07:58:26.287Z,0.10
2023-01-05T08:00:53.215Z,0.20
2023-01-05T08:03:20.165Z,0.20
2023-01-05T08:05:47.396Z,0.00
2023-01-05T08:08:19.096Z,0.40
2023-01-05T08:10:49.017Z,0.10
2023-01-05T08:13:15.504Z,0.10
2023-01-05T08:15:47.453Z,0.00
2023-01-05T08:18:17.237Z,0.10
2023-01-05T08:20:43.992Z,0.30
2023-01-05T08:23:10.538Z,0.28
2023-01-05T08:25:37.150Z,0.25
2023-01-05T08:28:03.874Z,0.10
2023-01-05T08:30:30.619Z,0.10
2023-01-05T08:32:57.093Z,0.05
2023-01-05T08:35:23.648Z,0.05
2023-01-05T08:37:50.155Z,0.28
2023-01-05T08:40:16.912Z,0.20
2023-01-05T08:42:43.469Z,0.30
2023-01-05T08:45:10.465Z,0.20
2023-01-05T08:47:37.061Z,0.10
2023-01-05T08:50:03.829Z,0.30
2023-01-05T08:52:30.327Z,0.30
2023-01-05T08:54:56.956Z,0.20
2023-01-05T08:57:23.434Z,0.57
2023-01-05T08:59:49.984Z,0.20
2023-01-05T09:02:23.381Z,0.25
2023-01-05T09:04:52.321Z,0.17
2023-01-05T09:07:19.097Z,0.45
2023-01-05T09:09:45.623Z,0.20
2023-01-05T09:12:12.162Z,0.32
2023-01-05T09:14:38.738Z,0.15
2023-01-05T09:17:07.455Z,0.08
2023-01-05T09:19:34.863Z,0.10
2023-01-05T09:22:01.346Z,0.30
2023-01-05T09:24:28.073Z,0.15
2023-01-05T09:26:54.682Z,0.10
2023-01-05T09:29:21.234Z,0.10
2023-01-05T09:31:47.790Z,0.20
2023-01-05T09:34:14.385Z,0.20
2023-01-05T09:36:40.891Z,0.43
2023-01-05T09:39:07.680Z,0.30
2023-01-05T09:41:38.362Z,0.10
2023-01-05T09:44:11.571Z,0.17
2023-01-05T09:46:41.675Z,0.10
2023-01-05T09:49:13.971Z,0.10
2023-01-05T09:51:42.040Z,0.05
2023-01-05T09:54:15.964Z,0.00
2023-01-05T09:57:15.109Z,0.13
2023-01-05T09:59:37.246Z,0.15
2023-01-05T10:02:20.310Z,0.10
2023-01-05T10:04:48.114Z,0.10
2023-01-05T10:07:30.234Z,0.00
2023-01-05T10:10:02.925Z,0.10
2023-01-05T10:12:40.009Z,0.10
2023-01-05T10:15:09.565Z,0.30
2023-01-05T10:17:42.304Z,0.10
2023-01-05T10:20:18.565Z,0.10
2023-01-05T10:23:15.458Z,0.10
2023-01-05T10:25:54.756Z,0.10
2023-01-05T10:28:39.286Z,0.10
2023-01-05T10:31:29.874Z,0.10
2023-01-05T10:34:27.721Z,0.35
2023-01-05T10:37:18.621Z,0.50
2023-01-05T10:40:19.541Z,0.10
2023-01-05T10:42:52.061Z,0.00
2023-01-05T10:45:20.488Z,0.25
2023-01-05T10:47:49.394Z,0.10
2023-01-05T10:50:39.247Z,0.30
2023-01-05T10:53:16.131Z,0.25
2023-01-05T10:55:51.035Z,0.30
2023-01-05T10:58:26.102Z,0.50
2023-01-05T11:00:55.396Z,0.25
2023-01-05T11:04:05.805Z,0.45
2023-01-05T11:06:27.647Z,0.20
2023-01-05T11:08:54.955Z,0.10
2023-01-05T11:11:25.940Z,0.20
2023-01-05T11:13:55.646Z,0.15
2023-01-05T11:16:26.778Z,0.20
2023-01-05T11:19:04.830Z,0.28
2023-01-05T11:24:04.735Z,0.20
2023-01-05T11:26:34.044Z,0.55
2023-01-05T11:29:09.811Z,0.30
2023-01-05T11:32:03.699Z,0.15
2023-01-05T11:34:43.555Z,0.30
2023-01-05T11:37:10.118Z,0.17
2023-01-05T11:40:04.851Z,0.30
2023-01-05T11:42:35.055Z,0.20
2023-01-05T11:45:17.290Z,0.00
2023-01-05T11:47:49.988Z,0.22
2023-01-05T11:50:26.645Z,0.20
2023-01-05T11:52:58.590Z,0.10
2023-01-05T11:55:39.053Z,0.00
2023-01-05T11:58:17.427Z,0.08
2023-01-05T12:00:46.691Z,0.10
2023-01-05T12:03:27.990Z,0.10
2023-01-05T12:05:57.634Z,0.10
2023-01-05T12:08:45.824Z,0.20
2023-01-05T12:11:17.345Z,0.10
2023-01-05T12:14:16.875Z,0.10
2023-01-05T12:16:54.112Z,0.10
2023-01-05T12:19:20.563Z,0.10
2023-01-05T12:22:05.534Z,0.20
2023-01-05T12:24:37.064Z,0.20
2023-01-05T12:27:27.347Z,0.10
2023-01-05T12:32:12.915Z,0.10
2023-01-05T12:34:07.224Z,0.22
2023-01-05T12:36:54.596Z,0.28
2023-01-05T12:39:39.355Z,0.10
2023-01-05T12:42:21.990Z,0.20
2023-01-05T12:45:29.614Z,0.30
2023-01-05T12:48:17.103Z,0.35
2023-01-05T12:51:06.042Z,0.20
2023-01-05T12:53:35.560Z,0.30
2023-01-05T12:56:24.960Z,0.55
2023-01-05T12:59:15.876Z,0.30
2023-01-05T13:01:59.564Z,0.15
2023-01-05T13:04:45.012Z,0.10
2023-01-05T13:07:38.584Z,0.50
2023-01-05T13:10:12.471Z,0.43
2023-01-05T13:12:40.398Z,0.30
2023-01-05T13:15:29.589Z,1.50
2023-01-05T13:17:59.001Z,1.38
2023-01-05T13:20:38.369Z,0.40
2023-01-05T13:23:12.136Z,0.80
2023-01-05T13:25:49.964Z,0.70
2023-01-05T13:28:19.311Z,1.00
2023-01-05T13:31:03.717Z,0.80
2023-01-05T13:33:58.272Z,0.73
2023-01-05T13:36:48.683Z,0.20
2023-01-05T13:39:47.566Z,0.50
2023-01-05T13:42:41.817Z,1.33
2023-01-05T13:45:20.368Z,1.20
2023-01-05T13:48:07.432Z,1.88
2023-01-05T13:50:56.759Z,0.57
2023-01-05T13:53:26.992Z,0.30
2023-01-05T13:55:57.064Z,0.20
2023-01-05T13:58:41.174Z,0.30
2023-01-05T14:01:18.011Z,0.20
2023-01-05T14:03:51.485Z,0.30
2023-01-05T14:06:28.461Z,0.20
2023-01-05T14:09:06.280Z,0.40
2023-01-05T14:11:33.048Z,0.20
2023-01-05T14:14:24.955Z,0.40
2023-01-05T14:16:52.734Z,0.50
2023-01-05T14:19:21.445Z,0.38
2023-01-05T14:21:50.568Z,0.30
2023-01-05T14:24:40.380Z,0.40
2023-01-05T14:27:09.498Z,0.60
2023-01-05T14:29:45.133Z,0.50
2023-01-05T14:32:29.943Z,0.28
2023-01-05T14:35:19.633Z,0.30
2023-01-05T14:37:57.395Z,0.65
2023-01-05T14:40:31.892Z,0.65
2023-01-05T14:43:00.253Z,0.80
2023-01-05T14:45:33.102Z,0.85
2023-01-05T14:48:02.446Z,1.63
2023-01-05T14:50:40.499Z,0.60
2023-01-05T14:55:40.140Z,0.93
2023-01-05T14:58:36.007Z,1.45
2023-01-05T15:01:18.860Z,0.85
2023-01-05T15:04:03.517Z,0.98
2023-01-05T15:06:41.314Z,1.40
2023-01-05T15:09:26.242Z,1.15
2023-01-05T15:12:14.917Z,1.05
2023-01-05T15:15:19.237Z,1.60
2023-01-05T15:18:07.644Z,1.30
2023-01-05T15:21:01.995Z,1.50
2023-01-05T15:23:57.030Z,1.98
2023-01-05T15:26:48.817Z,0.75
2023-01-05T15:29:45.315Z,1.17
2023-01-05T15:34:45.695Z,1.13
2023-01-05T15:37:31.137Z,1.83
2023-01-05T15:39:59.116Z,3.17
2023-01-05T15:42:43.622Z,4.78
2023-01-05T15:45:25.748Z,2.17
2023-01-05T15:47:53.267Z,2.05
2023-01-05T15:50:23.315Z,2.75
2023-01-05T15:52:55.664Z,8.38
2023-01-05T15:55:22.773Z,9.85
2023-01-05T15:57:55.004Z,7.97
2023-01-05T16:00:25.846Z,8.30
2023-01-05T16:02:52.432Z,8.95
2023-01-05T16:05:27.699Z,10.43
2023-01-05T16:07:59.391Z,4.60
2023-01-05T16:10:28.372Z,4.18
2023-01-05T16:13:07.904Z,4.75
2023-01-05T16:15:35.879Z,10.57
2023-01-05T16:18:05.581Z,3.88
2023-01-05T16:20:33.051Z,3.00
2023-01-05T16:23:08.952Z,1.55
2023-01-05T16:25:43.642Z,2.00
2023-01-05T16:28:17.064Z,2.25
2023-01-05T16:30:45.606Z,1.30
2023-01-05T16:33:33.068Z,1.75
2023-01-05T16:36:07.493Z,2.60
2023-01-05T16:38:34.549Z,1.85
2023-01-05T16:41:19.708Z,2.08
2023-01-05T16:43:52.354Z,1.77
2023-01-05T16:46:20.921Z,2.10
2023-01-05T16:48:47.925Z,1.40
2023-01-05T16:51:18.251Z,1.38
2023-01-05T16:53:51.732Z,1.77
2023-01-05T16:56:42.579Z,1.95
2023-01-05T16:59:30.726Z,2.38
2023-01-05T17:01:57.261Z,1.73
2023-01-05T17:04:23.941Z,1.80
2023-01-05T17:06:51.903Z,1.50
2023-01-05T17:09:29.513Z,1.02
2023-01-05T17:11:57.129Z,1.10
2023-01-05T17:14:26.222Z,2.28
2023-01-05T17:16:52.735Z,1.88
2023-01-05T17:19:20.911Z,2.13
2023-01-05T17:24:18.870Z,2.70
2023-01-05T17:26:45.716Z,2.65
2023-01-05T17:29:32.517Z,3.10
2023-01-05T17:31:59.620Z,2.20
2023-01-05T17:34:26.381Z,2.40
2023-01-05T17:36:58.440Z,2.30
2023-01-05T17:39:25.326Z,2.00
2023-01-05T17:41:52.209Z,1.98
2023-01-05T17:44:18.706Z,1.88
2023-01-05T17:46:47.020Z,1.45
2023-01-05T17:49:20.337Z,2.05
2023-01-05T17:51:47.525Z,4.53
2023-01-05T17:54:14.137Z,6.68
2023-01-05T17:56:40.820Z,18.48
2023-01-05T17:59:07.521Z,27.35
2023-01-05T18:01:34.292Z,15.90
2023-01-05T18:04:01.621Z,22.23
2023-01-05T18:06:28.730Z,10.83
2023-01-05T18:08:55.440Z,25.48
2023-01-05T18:11:21.991Z,37.10
2023-01-05T18:13:48.660Z,22.17
2023-01-05T18:16:15.710Z,26.23
2023-01-05T18:18:42.320Z,21.30
2023-01-05T18:21:08.954Z,9.23
2023-01-05T18:23:36.004Z,5.68
2023-01-05T18:26:07.825Z,2.97
2023-01-05T18:28:34.730Z,2.97
2023-01-05T18:31:01.510Z,2.13
2023-01-05T18:33:28.093Z,1.65
2023-01-05T18:38:21.839Z,2.17
2023-01-05T18:40:49.264Z,3.50
2023-01-05T18:43:16.489Z,2.55
2023-01-05T18:45:43.044Z,2.60
2023-01-05T18:48:09.721Z,1.88
2023-01-05T18:50:40.240Z,3.50
2023-01-05T18:53:06.741Z,2.97
2023-01-05T18:55:34.339Z,2.83
2023-01-05T18:58:00.791Z,3.17
2023-01-05T19:00:27.258Z,3.20
2023-01-05T19:02:53.964Z,2.50
2023-01-05T19:05:20.450Z,2.65
2023-01-05T19:07:51.060Z,3.00
2023-01-05T19:10:17.685Z,3.03
2023-01-05T19:12:44.278Z,4.80
2023-01-05T19:15:11.319Z,2.97
2023-01-05T19:17:37.855Z,3.25
2023-01-05T19:20:04.925Z,2.70
2023-01-05T19:22:31.597Z,2.08
2023-01-05T19:24:58.180Z,2.17
2023-01-05T19:27:24.629Z,2.70
2023-01-05T19:29:51.159Z,2.25
2023-01-05T19:32:17.673Z,2.67
2023-01-05T19:34:44.153Z,2.58
2023-01-05T19:37:10.882Z,3.53
2023-01-05T19:39:37.515Z,2.92
2023-01-05T19:42:04.087Z,5.45
2023-01-05T19:44:30.821Z,3.33
2023-01-05T19:46:57.454Z,2.70
2023-01-05T19:49:26.164Z,3.33
2023-01-05T19:51:53.553Z,3.03
2023-01-05T19:54:20.988Z,2.67
2023-01-05T19:56:47.566Z,2.88
2023-01-05T19:59:19.396Z,2.95
2023-01-05T20:01:46.013Z,2.50
2023-01-05T20:04:13.237Z,2.42
2023-01-05T20:06:42.530Z,3.70
2023-01-05T20:09:12.096Z,3.83
2023-01-05T20:11:40.896Z,2.83
2023-01-05T20:14:17.446Z,2.60
2023-01-05T20:16:47.525Z,3.20
2023-01-05T20:19:14.087Z,2.53
2023-01-05T20:21:41.153Z,2.72
2023-01-05T20:24:11.323Z,3.60
2023-01-05T20:26:38.028Z,3.10
2023-01-05T20:29:04.849Z,2.75
2023-01-05T20:31:37.916Z,2.42
2023-01-05T20:34:08.245Z,2.42
2023-01-05T20:36:35.614Z,2.70
2023-01-05T20:39:04.211Z,2.45
2023-01-05T20:41:34.288Z,2.00
2023-01-05T20:44:01.301Z,1.77
2023-01-05T20:46:33.873Z,1.98
2023-01-05T20:49:01.075Z,1.50
2023-01-05T20:51:28.695Z,1.58
2023-01-05T20:53:57.832Z,1.30
2023-01-05T20:56:26.929Z,2.17
2023-01-05T20:58:54.987Z,1.88
2023-01-05T21:01:22.471Z,1.40
2023-01-05T21:03:52.021Z,1.00
2023-01-05T21:06:20.157Z,0.90
2023-01-05T21:08:48.561Z,0.90
2023-01-05T21:11:17.556Z,1.48
2023-01-05T21:13:48.348Z,1.00
2023-01-05T21:16:24.239Z,0.85
2023-01-05T21:18:51.440Z,0.85
2023-01-05T21:21:20.688Z,0.80
2023-01-05T21:23:48.939Z,1.00
2023-01-05T21:26:16.036Z,1.45
2023-01-05T21:28:43.825Z,1.10
2023-01-05T21:31:13.789Z,2.13
2023-01-05T21:33:41.211Z,1.55
2023-01-05T21:36:13.274Z,1.60
2023-01-05T21:39:00.128Z,1.50
2023-01-05T21:41:26.460Z,1.10
2023-01-05T21:43:52.925Z,1.60
2023-01-05T21:46:19.523Z,1.73
2023-01-05T21:48:45.993Z,1.20
2023-01-05T21:51:12.543Z,1.00
2023-01-05T21:53:39.022Z,1.20
2023-01-05T21:56:13.477Z,0.93
2023-01-05T21:58:39.906Z,0.80
2023-01-05T22:01:06.554Z,1.05
2023-01-05T22:03:33.079Z,0.77
2023-01-05T22:05:59.609Z,1.10
2023-01-05T22:08:26.117Z,1.00
2023-01-05T22:10:56.776Z,0.90
2023-01-05T22:13:24.395Z,1.00
2023-01-05T22:15:51.451Z,0.90
2023-01-05T22:18:18.962Z,1.40
2023-01-05T22:20:45.962Z,1.10
2023-01-05T22:23:13.205Z,0.90
2023-01-05T22:25:40.875Z,0.90
2023-01-05T22:28:08.077Z,1.10
2023-01-05T22:30:35.064Z,1.63
2023-01-05T22:33:01.866Z,1.63
2023-01-05T22:35:28.528Z,1.10
2023-01-05T22:37:55.740Z,1.27
2023-01-05T22:40:22.834Z,1.07
2023-01-05T22:42:49.311Z,1.10
2023-01-05T22:45:16.571Z,1.20
2023-01-05T22:47:43.062Z,1.13
2023-01-05T22:50:09.917Z,1.00
2023-01-05T22:52:36.459Z,1.38
2023-01-05T22:55:03.017Z,0.90
2023-01-05T22:57:29.649Z,1.80
2023-01-05T22:59:56.180Z,1.40
2023-01-05T23:02:22.797Z,1.52
2023-01-05T23:04:49.447Z,1.52
2023-01-05T23:07:15.953Z,2.80
2023-01-05T23:09:42.487Z,2.13
2023-01-05T23:12:09.613Z,2.17
2023-01-05T23:14:36.681Z,1.63
2023-01-05T23:17:03.246Z,2.60
2023-01-05T23:19:29.977Z,1.98
2023-01-05T23:21:56.537Z,2.38
2023-01-05T23:24:23.175Z,1.80
2023-01-05T23:26:49.694Z,1.92
2023-01-05T23:29:16.252Z,1.40
2023-01-05T23:31:42.995Z,0.80
2023-01-05T23:34:09.618Z,0.75
2023-01-05T23:36:36.166Z,1.10
2023-01-05T23:39:02.718Z,0.73
2023-01-05T23:41:29.215Z,0.88
2023-01-05T23:43:55.791Z,0.70
2023-01-05T23:46:22.363Z,0.88
2023-01-05T23:48:50.507Z,0.73
2023-01-05T23:53:46.516Z,0.32
2023-01-05T23:56:16.407Z,0.70
2023-01-05T23:58:43.686Z,0.50
